sensor_id;sensor_type;location;lat;lon;timestamp;P1;durP1;ratioP1;P2;durP2;ratioP2
40489;SDS011;26196;52.302;10.572;2023-12-04T00:01:51;7.07;;;4.45;;
40489;SDS011;26196;52.302;10.572;2023-12-04T00:05:51;8.77;;;6.07;;
40489;SDS011;26196;52.302;10.572;2023-12-04T00:09:51;7.80;;;5.23;;
40489;SDS011;26196;52.302;10.572;2023-12-04T00:13:52;7.53;;;4.95;;
40489;SDS011;26196;52.302;10.572;2023-12-04T00:17:53;6.60;;;4.47;;
40489;SDS011;26196;52.302;10.572;2023-12-04T00:21:53;7.90;;;5.03;;
40489;SDS011;26196;52.302;10.572;2023-12-04T00:25:54;7.05;;;5.20;;
40489;SDS011;26196;52.302;10.572;2023-12-04T00:29:55;8.18;;;5.07;;
40489;SDS011;26196;52.302;10.572;2023-12-04T00:33:56;7.95;;;4.85;;
40489;SDS011;26196;52.302;10.572;2023-12-04T00:37:56;7.87;;;5.90;;
40489;SDS011;26196;52.302;10.572;2023-12-04T00:41:56;7.00;;;4.63;;
40489;SDS011;26196;52.302;10.572;2023-12-04T00:45:57;8.38;;;5.03;;
40489;SDS011;26196;52.302;10.572;2023-12-04T00:49:57;6.50;;;4.70;;
40489;SDS011;26196;52.302;10.572;2023-12-04T00:53:57;6.72;;;4.88;;
40489;SDS011;26196;52.302;10.572;2023-12-04T00:57:58;6.10;;;4.40;;
40489;SDS011;26196;52.302;10.572;2023-12-04T01:01:58;5.78;;;4.32;;
40489;SDS011;26196;52.302;10.572;2023-12-04T01:05:59;7.07;;;4.37;;
40489;SDS011;26196;52.302;10.572;2023-12-04T01:09:59;7.13;;;4.38;;
40489;SDS011;26196;52.302;10.572;2023-12-04T01:13:59;6.47;;;4.00;;
40489;SDS011;26196;52.302;10.572;2023-12-04T01:18:00;8.38;;;5.20;;
40489;SDS011;26196;52.302;10.572;2023-12-04T01:22:00;7.72;;;5.13;;
40489;SDS011;26196;52.302;10.572;2023-12-04T01:26:01;8.30;;;4.82;;
40489;SDS011;26196;52.302;10.572;2023-12-04T01:30:02;6.43;;;4.53;;
40489;SDS011;26196;52.302;10.572;2023-12-04T01:34:03;6.80;;;4.63;;
40489;SDS011;26196;52.302;10.572;2023-12-04T01:38:04;7.03;;;4.70;;
40489;SDS011;26196;52.302;10.572;2023-12-04T01:42:04;9.07;;;5.35;;
40489;SDS011;26196;52.302;10.572;2023-12-04T01:46:04;7.40;;;4.80;;
40489;SDS011;26196;52.302;10.572;2023-12-04T01:50:06;7.38;;;4.75;;
40489;SDS011;26196;52.302;10.572;2023-12-04T01:54:07;7.90;;;5.00;;
40489;SDS011;26196;52.302;10.572;2023-12-04T01:58:08;8.25;;;5.40;;
40489;SDS011;26196;52.302;10.572;2023-12-04T02:02:09;6.20;;;4.35;;
40489;SDS011;26196;52.302;10.572;2023-12-04T02:06:09;8.15;;;5.38;;
40489;SDS011;26196;52.302;10.572;2023-12-04T02:10:12;7.85;;;4.97;;
40489;SDS011;26196;52.302;10.572;2023-12-04T02:14:12;6.78;;;5.22;;
40489;SDS011;26196;52.302;10.572;2023-12-04T02:18:13;9.25;;;5.28;;
40489;SDS011;26196;52.302;10.572;2023-12-04T02:22:13;8.70;;;5.32;;
40489;SDS011;26196;52.302;10.572;2023-12-04T02:26:15;8.80;;;5.55;;
40489;SDS011;26196;52.302;10.572;2023-12-04T02:30:19;9.30;;;5.22;;
40489;SDS011;26196;52.302;10.572;2023-12-04T02:34:22;6.80;;;5.15;;
40489;SDS011;26196;52.302;10.572;2023-12-04T02:38:24;8.68;;;5.28;;
40489;SDS011;26196;52.302;10.572;2023-12-04T02:42:25;6.93;;;4.13;;
40489;SDS011;26196;52.302;10.572;2023-12-04T02:46:26;7.88;;;5.43;;
40489;SDS011;26196;52.302;10.572;2023-12-04T02:50:26;9.02;;;6.05;;
40489;SDS011;26196;52.302;10.572;2023-12-04T02:54:26;6.63;;;4.60;;
40489;SDS011;26196;52.302;10.572;2023-12-04T02:58:26;6.47;;;4.30;;
40489;SDS011;26196;52.302;10.572;2023-12-04T03:02:27;7.53;;;4.87;;
40489;SDS011;26196;52.302;10.572;2023-12-04T03:06:27;7.47;;;4.83;;
40489;SDS011;26196;52.302;10.572;2023-12-04T03:10:27;6.88;;;4.53;;
40489;SDS011;26196;52.302;10.572;2023-12-04T03:14:28;7.32;;;4.80;;
40489;SDS011;26196;52.302;10.572;2023-12-04T03:18:28;6.80;;;4.28;;
40489;SDS011;26196;52.302;10.572;2023-12-04T03:22:28;5.78;;;4.32;;
40489;SDS011;26196;52.302;10.572;2023-12-04T03:26:29;7.65;;;4.38;;
40489;SDS011;26196;52.302;10.572;2023-12-04T03:30:29;7.10;;;4.93;;
40489;SDS011;26196;52.302;10.572;2023-12-04T03:34:29;6.73;;;4.50;;
40489;SDS011;26196;52.302;10.572;2023-12-04T03:38:30;8.13;;;4.57;;
40489;SDS011;26196;52.302;10.572;2023-12-04T03:42:30;7.28;;;4.05;;
40489;SDS011;26196;52.302;10.572;2023-12-04T03:46:30;6.30;;;4.23;;
40489;SDS011;26196;52.302;10.572;2023-12-04T03:50:31;6.57;;;4.10;;
40489;SDS011;26196;52.302;10.572;2023-12-04T03:54:31;7.68;;;5.03;;
40489;SDS011;26196;52.302;10.572;2023-12-04T03:58:32;5.43;;;4.07;;
40489;SDS011;26196;52.302;10.572;2023-12-04T04:02:32;6.13;;;4.15;;
40489;SDS011;26196;52.302;10.572;2023-12-04T04:06:32;6.80;;;4.00;;
40489;SDS011;26196;52.302;10.572;2023-12-04T04:10:33;6.00;;;3.60;;
40489;SDS011;26196;52.302;10.572;2023-12-04T04:14:34;6.03;;;3.72;;
40489;SDS011;26196;52.302;10.572;2023-12-04T04:18:34;5.28;;;3.72;;
40489;SDS011;26196;52.302;10.572;2023-12-04T04:22:34;5.00;;;3.20;;
40489;SDS011;26196;52.302;10.572;2023-12-04T04:26:38;5.22;;;3.15;;
40489;SDS011;26196;52.302;10.572;2023-12-04T04:30:38;4.25;;;2.83;;
40489;SDS011;26196;52.302;10.572;2023-12-04T04:34:39;4.40;;;3.40;;
40489;SDS011;26196;52.302;10.572;2023-12-04T04:38:40;4.17;;;2.67;;
40489;SDS011;26196;52.302;10.572;2023-12-04T04:42:40;4.70;;;2.92;;
40489;SDS011;26196;52.302;10.572;2023-12-04T04:46:41;4.85;;;3.47;;
40489;SDS011;26196;52.302;10.572;2023-12-04T04:50:41;4.25;;;2.75;;
40489;SDS011;26196;52.302;10.572;2023-12-04T04:54:41;6.63;;;2.95;;
40489;SDS011;26196;52.302;10.572;2023-12-04T04:58:42;6.63;;;3.07;;
40489;SDS011;26196;52.302;10.572;2023-12-04T05:02:42;4.80;;;3.15;;
40489;SDS011;26196;52.302;10.572;2023-12-04T05:06:42;5.47;;;3.13;;
40489;SDS011;26196;52.302;10.572;2023-12-04T05:10:43;4.70;;;2.72;;
40489;SDS011;26196;52.302;10.572;2023-12-04T05:14:43;5.00;;;3.10;;
40489;SDS011;26196;52.302;10.572;2023-12-04T05:18:43;5.57;;;2.87;;
40489;SDS011;26196;52.302;10.572;2023-12-04T05:22:44;4.70;;;2.80;;
40489;SDS011;26196;52.302;10.572;2023-12-04T05:26:44;6.68;;;3.60;;
40489;SDS011;26196;52.302;10.572;2023-12-04T05:30:45;9.27;;;4.35;;
40489;SDS011;26196;52.302;10.572;2023-12-04T05:34:45;12.35;;;4.30;;
40489;SDS011;26196;52.302;10.572;2023-12-04T05:38:45;7.53;;;2.97;;
40489;SDS011;26196;52.302;10.572;2023-12-04T05:42:46;7.18;;;3.67;;
40489;SDS011;26196;52.302;10.572;2023-12-04T05:46:46;8.82;;;3.47;;
40489;SDS011;26196;52.302;10.572;2023-12-04T05:50:46;6.35;;;3.38;;
40489;SDS011;26196;52.302;10.572;2023-12-04T05:54:47;6.93;;;3.67;;
40489;SDS011;26196;52.302;10.572;2023-12-04T05:58:47;4.50;;;2.90;;
40489;SDS011;26196;52.302;10.572;2023-12-04T06:02:47;6.47;;;2.63;;
40489;SDS011;26196;52.302;10.572;2023-12-04T06:06:48;4.30;;;2.80;;
40489;SDS011;26196;52.302;10.572;2023-12-04T06:10:48;7.10;;;3.03;;
40489;SDS011;26196;52.302;10.572;2023-12-04T06:14:48;5.63;;;2.60;;
40489;SDS011;26196;52.302;10.572;2023-12-04T06:18:49;3.13;;;2.20;;
40489;SDS011;26196;52.302;10.572;2023-12-04T06:22:49;4.88;;;2.72;;
40489;SDS011;26196;52.302;10.572;2023-12-04T06:26:50;4.13;;;2.17;;
40489;SDS011;26196;52.302;10.572;2023-12-04T06:30:51;3.70;;;2.47;;
40489;SDS011;26196;52.302;10.572;2023-12-04T06:34:52;4.68;;;2.20;;
40489;SDS011;26196;52.302;10.572;2023-12-04T06:38:53;4.28;;;2.60;;
40489;SDS011;26196;52.302;10.572;2023-12-04T06:42:55;4.50;;;2.72;;
40489;SDS011;26196;52.302;10.572;2023-12-04T06:46:56;4.18;;;2.55;;
40489;SDS011;26196;52.302;10.572;2023-12-04T06:51:00;3.88;;;2.10;;
40489;SDS011;26196;52.302;10.572;2023-12-04T06:55:00;3.35;;;2.50;;
40489;SDS011;26196;52.302;10.572;2023-12-04T06:59:01;3.28;;;2.40;;
40489;SDS011;26196;52.302;10.572;2023-12-04T07:03:01;3.53;;;2.17;;
40489;SDS011;26196;52.302;10.572;2023-12-04T07:07:02;2.90;;;2.05;;
40489;SDS011;26196;52.302;10.572;2023-12-04T07:11:05;4.97;;;2.85;;
40489;SDS011;26196;52.302;10.572;2023-12-04T07:15:08;5.88;;;2.05;;
40489;SDS011;26196;52.302;10.572;2023-12-04T07:19:09;5.80;;;3.22;;
40489;SDS011;26196;52.302;10.572;2023-12-04T07:23:10;3.33;;;1.88;;
40489;SDS011;26196;52.302;10.572;2023-12-04T07:27:10;3.85;;;2.30;;
40489;SDS011;26196;52.302;10.572;2023-12-04T07:31:11;2.65;;;1.80;;
40489;SDS011;26196;52.302;10.572;2023-12-04T07:35:11;2.90;;;2.08;;
40489;SDS011;26196;52.302;10.572;2023-12-04T07:39:12;3.55;;;2.20;;
40489;SDS011;26196;52.302;10.572;2023-12-04T07:43:12;5.18;;;2.55;;
40489;SDS011;26196;52.302;10.572;2023-12-04T07:47:14;3.15;;;2.03;;
40489;SDS011;26196;52.302;10.572;2023-12-04T07:51:15;2.50;;;1.52;;
40489;SDS011;26196;52.302;10.572;2023-12-04T07:55:16;2.72;;;1.65;;
40489;SDS011;26196;52.302;10.572;2023-12-04T07:59:16;4.38;;;2.15;;
40489;SDS011;26196;52.302;10.572;2023-12-04T08:03:16;3.05;;;1.70;;
40489;SDS011;26196;52.302;10.572;2023-12-04T08:07:17;2.55;;;1.60;;
40489;SDS011;26196;52.302;10.572;2023-12-04T08:11:17;2.88;;;1.83;;
40489;SDS011;26196;52.302;10.572;2023-12-04T08:15:18;2.53;;;1.38;;
40489;SDS011;26196;52.302;10.572;2023-12-04T08:19:18;2.45;;;1.60;;
40489;SDS011;26196;52.302;10.572;2023-12-04T08:23:19;3.55;;;1.88;;
40489;SDS011;26196;52.302;10.572;2023-12-04T08:27:20;3.40;;;1.40;;
40489;SDS011;26196;52.302;10.572;2023-12-04T08:31:20;2.20;;;1.60;;
40489;SDS011;26196;52.302;10.572;2023-12-04T08:35:20;2.47;;;1.57;;
40489;SDS011;26196;52.302;10.572;2023-12-04T08:39:22;2.70;;;1.60;;
40489;SDS011;26196;52.302;10.572;2023-12-04T08:43:22;2.40;;;1.80;;
40489;SDS011;26196;52.302;10.572;2023-12-04T08:47:23;1.92;;;1.40;;
40489;SDS011;26196;52.302;10.572;2023-12-04T08:51:24;2.55;;;1.58;;
40489;SDS011;26196;52.302;10.572;2023-12-04T08:55:24;2.40;;;1.50;;
40489;SDS011;26196;52.302;10.572;2023-12-04T08:59:25;2.33;;;1.75;;
40489;SDS011;26196;52.302;10.572;2023-12-04T09:03:25;2.63;;;1.50;;
40489;SDS011;26196;52.302;10.572;2023-12-04T09:07:26;2.90;;;2.20;;
40489;SDS011;26196;52.302;10.572;2023-12-04T09:11:26;2.90;;;2.03;;
40489;SDS011;26196;52.302;10.572;2023-12-04T09:15:26;2.42;;;1.42;;
40489;SDS011;26196;52.302;10.572;2023-12-04T09:19:26;3.30;;;1.77;;
40489;SDS011;26196;52.302;10.572;2023-12-04T09:23:27;2.83;;;1.60;;
40489;SDS011;26196;52.302;10.572;2023-12-04T09:27:27;2.13;;;1.58;;
40489;SDS011;26196;52.302;10.572;2023-12-04T09:31:27;1.83;;;1.50;;
40489;SDS011;26196;52.302;10.572;2023-12-04T09:35:28;5.40;;;2.17;;
40489;SDS011;26196;52.302;10.572;2023-12-04T09:39:28;2.28;;;1.77;;
40489;SDS011;26196;52.302;10.572;2023-12-04T09:43:30;2.47;;;1.60;;
40489;SDS011;26196;52.302;10.572;2023-12-04T09:47:31;2.92;;;1.80;;
40489;SDS011;26196;52.302;10.572;2023-12-04T09:51:34;2.20;;;1.60;;
40489;SDS011;26196;52.302;10.572;2023-12-04T09:55:34;3.22;;;2.05;;
40489;SDS011;26196;52.302;10.572;2023-12-04T09:59:34;2.05;;;1.70;;
40489;SDS011;26196;52.302;10.572;2023-12-04T10:03:36;3.40;;;1.90;;
40489;SDS011;26196;52.302;10.572;2023-12-04T10:07:36;3.70;;;2.45;;
40489;SDS011;26196;52.302;10.572;2023-12-04T10:11:41;3.63;;;2.00;;
40489;SDS011;26196;52.302;10.572;2023-12-04T10:15:48;3.95;;;2.28;;
40489;SDS011;26196;52.302;10.572;2023-12-04T10:19:49;4.18;;;2.28;;
40489;SDS011;26196;52.302;10.572;2023-12-04T10:24:07;2.63;;;2.28;;
40489;SDS011;26196;52.302;10.572;2023-12-04T10:28:09;3.83;;;2.55;;
40489;SDS011;26196;52.302;10.572;2023-12-04T10:32:11;3.15;;;1.85;;
40489;SDS011;26196;52.302;10.572;2023-12-04T10:36:11;3.28;;;2.30;;
40489;SDS011;26196;52.302;10.572;2023-12-04T10:40:12;3.25;;;2.63;;
40489;SDS011;26196;52.302;10.572;2023-12-04T10:44:22;2.88;;;2.15;;
40489;SDS011;26196;52.302;10.572;2023-12-04T10:48:23;2.70;;;2.40;;
40489;SDS011;26196;52.302;10.572;2023-12-04T10:52:23;3.30;;;2.45;;
40489;SDS011;26196;52.302;10.572;2023-12-04T10:56:25;3.15;;;2.08;;
40489;SDS011;26196;52.302;10.572;2023-12-04T11:00:34;2.97;;;2.10;;
40489;SDS011;26196;52.302;10.572;2023-12-04T11:04:36;4.10;;;2.25;;
40489;SDS011;26196;52.302;10.572;2023-12-04T11:08:39;3.67;;;2.50;;
40489;SDS011;26196;52.302;10.572;2023-12-04T11:12:45;3.35;;;2.20;;
40489;SDS011;26196;52.302;10.572;2023-12-04T11:16:47;2.83;;;2.23;;
40489;SDS011;26196;52.302;10.572;2023-12-04T11:20:54;3.55;;;2.15;;
40489;SDS011;26196;52.302;10.572;2023-12-04T11:24:58;3.25;;;2.33;;
40489;SDS011;26196;52.302;10.572;2023-12-04T11:28:59;3.50;;;2.30;;
40489;SDS011;26196;52.302;10.572;2023-12-04T11:33:01;3.75;;;2.17;;
40489;SDS011;26196;52.302;10.572;2023-12-04T11:37:01;3.25;;;2.13;;
40489;SDS011;26196;52.302;10.572;2023-12-04T11:41:14;3.72;;;2.40;;
40489;SDS011;26196;52.302;10.572;2023-12-04T11:45:18;3.63;;;2.42;;
40489;SDS011;26196;52.302;10.572;2023-12-04T11:49:27;3.15;;;2.22;;
40489;SDS011;26196;52.302;10.572;2023-12-04T11:53:31;4.03;;;2.40;;
40489;SDS011;26196;52.302;10.572;2023-12-04T11:57:38;4.25;;;2.40;;
40489;SDS011;26196;52.302;10.572;2023-12-04T12:01:39;2.72;;;1.80;;
40489;SDS011;26196;52.302;10.572;2023-12-04T12:05:43;4.18;;;3.38;;
40489;SDS011;26196;52.302;10.572;2023-12-04T12:09:43;3.85;;;2.80;;
40489;SDS011;26196;52.302;10.572;2023-12-04T12:13:44;3.47;;;2.28;;
40489;SDS011;26196;52.302;10.572;2023-12-04T12:17:44;2.97;;;2.00;;
40489;SDS011;26196;52.302;10.572;2023-12-04T12:21:44;3.35;;;2.33;;
40489;SDS011;26196;52.302;10.572;2023-12-04T12:25:45;2.90;;;2.10;;
40489;SDS011;26196;52.302;10.572;2023-12-04T12:29:46;3.05;;;1.88;;
40489;SDS011;26196;52.302;10.572;2023-12-04T12:33:46;3.10;;;1.70;;
40489;SDS011;26196;52.302;10.572;2023-12-04T12:37:46;3.85;;;2.20;;
40489;SDS011;26196;52.302;10.572;2023-12-04T12:41:47;3.35;;;2.42;;
40489;SDS011;26196;52.302;10.572;2023-12-04T12:45:49;2.20;;;1.70;;
40489;SDS011;26196;52.302;10.572;2023-12-04T12:49:49;4.22;;;2.58;;
40489;SDS011;26196;52.302;10.572;2023-12-04T12:53:49;3.05;;;1.80;;
40489;SDS011;26196;52.302;10.572;2023-12-04T12:57:50;3.33;;;1.88;;
40489;SDS011;26196;52.302;10.572;2023-12-04T13:01:52;2.70;;;1.70;;
40489;SDS011;26196;52.302;10.572;2023-12-04T13:05:52;2.75;;;1.98;;
40489;SDS011;26196;52.302;10.572;2023-12-04T13:09:52;2.33;;;1.40;;
40489;SDS011;26196;52.302;10.572;2023-12-04T13:13:53;2.83;;;2.33;;
40489;SDS011;26196;52.302;10.572;2023-12-04T13:17:54;2.30;;;1.70;;
40489;SDS011;26196;52.302;10.572;2023-12-04T13:21:54;2.53;;;1.77;;
40489;SDS011;26196;52.302;10.572;2023-12-04T13:25:55;3.00;;;1.92;;
40489;SDS011;26196;52.302;10.572;2023-12-04T13:29:55;3.20;;;2.00;;
40489;SDS011;26196;52.302;10.572;2023-12-04T13:33:55;3.25;;;1.95;;
40489;SDS011;26196;52.302;10.572;2023-12-04T13:37:56;2.47;;;1.75;;
40489;SDS011;26196;52.302;10.572;2023-12-04T13:41:59;3.78;;;1.83;;
40489;SDS011;26196;52.302;10.572;2023-12-04T13:46:17;2.30;;;1.65;;
40489;SDS011;26196;52.302;10.572;2023-12-04T13:50:18;2.00;;;1.65;;
40489;SDS011;26196;52.302;10.572;2023-12-04T13:54:19;3.15;;;1.90;;
40489;SDS011;26196;52.302;10.572;2023-12-04T13:58:21;2.83;;;1.90;;
40489;SDS011;26196;52.302;10.572;2023-12-04T14:02:43;3.58;;;1.73;;
40489;SDS011;26196;52.302;10.572;2023-12-04T14:06:44;3.03;;;1.75;;
40489;SDS011;26196;52.302;10.572;2023-12-04T14:10:45;2.25;;;1.67;;
40489;SDS011;26196;52.302;10.572;2023-12-04T14:14:45;2.35;;;1.50;;
40489;SDS011;26196;52.302;10.572;2023-12-04T14:18:47;2.47;;;1.80;;
40489;SDS011;26196;52.302;10.572;2023-12-04T14:22:47;3.90;;;2.35;;
40489;SDS011;26196;52.302;10.572;2023-12-04T14:26:48;3.50;;;1.70;;
40489;SDS011;26196;52.302;10.572;2023-12-04T14:30:50;4.30;;;2.08;;
40489;SDS011;26196;52.302;10.572;2023-12-04T14:34:50;3.00;;;2.00;;
40489;SDS011;26196;52.302;10.572;2023-12-04T14:38:50;2.83;;;1.60;;
40489;SDS011;26196;52.302;10.572;2023-12-04T14:42:51;3.35;;;1.90;;
40489;SDS011;26196;52.302;10.572;2023-12-04T14:46:51;2.42;;;1.73;;
40489;SDS011;26196;52.302;10.572;2023-12-04T14:50:52;2.28;;;1.70;;
40489;SDS011;26196;52.302;10.572;2023-12-04T14:54:52;3.88;;;1.50;;
40489;SDS011;26196;52.302;10.572;2023-12-04T14:58:58;6.75;;;2.10;;
40489;SDS011;26196;52.302;10.572;2023-12-04T15:03:07;2.70;;;1.90;;
40489;SDS011;26196;52.302;10.572;2023-12-04T15:07:10;3.65;;;2.17;;
40489;SDS011;26196;52.302;10.572;2023-12-04T15:11:43;2.80;;;1.70;;
40489;SDS011;26196;52.302;10.572;2023-12-04T15:15:49;2.55;;;1.73;;
40489;SDS011;26196;52.302;10.572;2023-12-04T15:20:09;2.80;;;1.70;;
40489;SDS011;26196;52.302;10.572;2023-12-04T15:24:10;5.20;;;2.25;;
40489;SDS011;26196;52.302;10.572;2023-12-04T15:28:10;2.95;;;2.03;;
40489;SDS011;26196;52.302;10.572;2023-12-04T15:32:11;3.30;;;2.00;;
40489;SDS011;26196;52.302;10.572;2023-12-04T15:36:11;3.08;;;2.20;;
40489;SDS011;26196;52.302;10.572;2023-12-04T15:40:12;3.78;;;1.70;;
40489;SDS011;26196;52.302;10.572;2023-12-04T15:44:14;2.47;;;1.65;;
40489;SDS011;26196;52.302;10.572;2023-12-04T15:48:14;2.15;;;1.35;;
40489;SDS011;26196;52.302;10.572;2023-12-04T15:52:15;2.30;;;1.65;;
40489;SDS011;26196;52.302;10.572;2023-12-04T15:56:18;3.00;;;2.03;;
40489;SDS011;26196;52.302;10.572;2023-12-04T16:00:19;3.20;;;2.03;;
40489;SDS011;26196;52.302;10.572;2023-12-04T16:04:19;3.50;;;1.55;;
40489;SDS011;26196;52.302;10.572;2023-12-04T16:08:19;3.08;;;2.15;;
40489;SDS011;26196;52.302;10.572;2023-12-04T16:12:20;3.28;;;1.67;;
40489;SDS011;26196;52.302;10.572;2023-12-04T16:16:20;3.27;;;1.90;;
40489;SDS011;26196;52.302;10.572;2023-12-04T16:20:20;2.90;;;1.80;;
40489;SDS011;26196;52.302;10.572;2023-12-04T16:24:21;2.97;;;1.77;;
40489;SDS011;26196;52.302;10.572;2023-12-04T16:28:22;3.75;;;1.70;;
40489;SDS011;26196;52.302;10.572;2023-12-04T16:32:22;3.25;;;1.90;;
40489;SDS011;26196;52.302;10.572;2023-12-04T16:36:23;3.30;;;1.88;;
40489;SDS011;26196;52.302;10.572;2023-12-04T16:40:24;6.47;;;1.75;;
40489;SDS011;26196;52.302;10.572;2023-12-04T16:44:24;2.78;;;1.90;;
40489;SDS011;26196;52.302;10.572;2023-12-04T16:48:24;2.93;;;1.60;;
40489;SDS011;26196;52.302;10.572;2023-12-04T16:52:25;5.53;;;2.10;;
40489;SDS011;26196;52.302;10.572;2023-12-04T16:56:25;3.93;;;2.00;;
40489;SDS011;26196;52.302;10.572;2023-12-04T17:00:27;4.15;;;1.77;;
40489;SDS011;26196;52.302;10.572;2023-12-04T17:04:27;6.28;;;2.28;;
40489;SDS011;26196;52.302;10.572;2023-12-04T17:08:29;5.72;;;2.35;;
40489;SDS011;26196;52.302;10.572;2023-12-04T17:12:30;2.75;;;2.20;;
40489;SDS011;26196;52.302;10.572;2023-12-04T17:16:31;2.78;;;1.92;;
40489;SDS011;26196;52.302;10.572;2023-12-04T17:20:32;4.05;;;2.00;;
40489;SDS011;26196;52.302;10.572;2023-12-04T17:24:33;3.30;;;2.05;;
40489;SDS011;26196;52.302;10.572;2023-12-04T17:28:33;5.53;;;2.28;;
40489;SDS011;26196;52.302;10.572;2023-12-04T17:32:34;4.40;;;2.13;;
40489;SDS011;26196;52.302;10.572;2023-12-04T17:36:35;3.47;;;1.92;;
40489;SDS011;26196;52.302;10.572;2023-12-04T17:40:35;2.90;;;2.15;;
40489;SDS011;26196;52.302;10.572;2023-12-04T17:44:36;3.17;;;1.98;;
40489;SDS011;26196;52.302;10.572;2023-12-04T17:48:39;2.60;;;1.23;;
40489;SDS011;26196;52.302;10.572;2023-12-04T17:52:40;4.13;;;2.00;;
40489;SDS011;26196;52.302;10.572;2023-12-04T17:56:41;3.70;;;2.30;;
40489;SDS011;26196;52.302;10.572;2023-12-04T18:00:44;3.03;;;1.80;;
40489;SDS011;26196;52.302;10.572;2023-12-04T18:04:45;2.80;;;1.77;;
40489;SDS011;26196;52.302;10.572;2023-12-04T18:08:45;3.70;;;2.35;;
40489;SDS011;26196;52.302;10.572;2023-12-04T18:12:46;4.00;;;2.47;;
40489;SDS011;26196;52.302;10.572;2023-12-04T18:16:46;3.70;;;2.35;;
40489;SDS011;26196;52.302;10.572;2023-12-04T18:20:47;3.13;;;2.10;;
40489;SDS011;26196;52.302;10.572;2023-12-04T18:24:47;4.53;;;3.22;;
40489;SDS011;26196;52.302;10.572;2023-12-04T18:28:48;2.58;;;1.75;;
40489;SDS011;26196;52.302;10.572;2023-12-04T18:32:48;2.90;;;1.67;;
40489;SDS011;26196;52.302;10.572;2023-12-04T18:36:50;2.53;;;1.77;;
40489;SDS011;26196;52.302;10.572;2023-12-04T18:40:54;3.42;;;2.00;;
40489;SDS011;26196;52.302;10.572;2023-12-04T18:44:54;2.45;;;1.48;;
40489;SDS011;26196;52.302;10.572;2023-12-04T18:48:55;3.28;;;1.92;;
40489;SDS011;26196;52.302;10.572;2023-12-04T18:52:57;4.18;;;2.03;;
40489;SDS011;26196;52.302;10.572;2023-12-04T18:56:58;3.10;;;1.73;;
40489;SDS011;26196;52.302;10.572;2023-12-04T19:00:59;5.85;;;2.15;;
40489;SDS011;26196;52.302;10.572;2023-12-04T19:04:59;4.72;;;2.15;;
40489;SDS011;26196;52.302;10.572;2023-12-04T19:09:00;2.88;;;1.90;;
40489;SDS011;26196;52.302;10.572;2023-12-04T19:13:01;2.97;;;1.60;;
40489;SDS011;26196;52.302;10.572;2023-12-04T19:17:01;2.95;;;2.00;;
40489;SDS011;26196;52.302;10.572;2023-12-04T19:21:01;3.58;;;1.85;;
40489;SDS011;26196;52.302;10.572;2023-12-04T19:25:04;4.55;;;2.20;;
40489;SDS011;26196;52.302;10.572;2023-12-04T19:29:05;2.40;;;1.80;;
40489;SDS011;26196;52.302;10.572;2023-12-04T19:33:05;4.32;;;1.92;;
40489;SDS011;26196;52.302;10.572;2023-12-04T19:37:06;2.92;;;1.40;;
40489;SDS011;26196;52.302;10.572;2023-12-04T19:41:06;3.13;;;1.90;;
40489;SDS011;26196;52.302;10.572;2023-12-04T19:45:07;4.60;;;1.83;;
40489;SDS011;26196;52.302;10.572;2023-12-04T19:49:10;4.30;;;1.88;;
40489;SDS011;26196;52.302;10.572;2023-12-04T19:53:11;5.65;;;3.10;;
40489;SDS011;26196;52.302;10.572;2023-12-04T19:57:11;5.68;;;3.05;;
40489;SDS011;26196;52.302;10.572;2023-12-04T20:01:12;2.97;;;1.95;;
40489;SDS011;26196;52.302;10.572;2023-12-04T20:05:23;3.97;;;2.38;;
40489;SDS011;26196;52.302;10.572;2023-12-04T20:09:23;2.77;;;1.90;;
40489;SDS011;26196;52.302;10.572;2023-12-04T20:13:24;3.55;;;2.20;;
40489;SDS011;26196;52.302;10.572;2023-12-04T20:17:24;3.77;;;2.43;;
40489;SDS011;26196;52.302;10.572;2023-12-04T20:21:25;5.15;;;2.17;;
40489;SDS011;26196;52.302;10.572;2023-12-04T20:25:25;5.87;;;2.70;;
40489;SDS011;26196;52.302;10.572;2023-12-04T20:29:26;3.35;;;2.53;;
40489;SDS011;26196;52.302;10.572;2023-12-04T20:33:27;4.85;;;2.97;;
40489;SDS011;26196;52.302;10.572;2023-12-04T20:37:27;3.53;;;2.53;;
40489;SDS011;26196;52.302;10.572;2023-12-04T20:41:28;6.93;;;2.70;;
40489;SDS011;26196;52.302;10.572;2023-12-04T20:45:28;4.32;;;2.20;;
40489;SDS011;26196;52.302;10.572;2023-12-04T20:49:28;4.07;;;2.30;;
40489;SDS011;26196;52.302;10.572;2023-12-04T20:53:29;3.20;;;2.28;;
40489;SDS011;26196;52.302;10.572;2023-12-04T20:57:29;3.67;;;2.42;;
40489;SDS011;26196;52.302;10.572;2023-12-04T21:01:29;3.75;;;2.40;;
40489;SDS011;26196;52.302;10.572;2023-12-04T21:05:30;3.50;;;2.38;;
40489;SDS011;26196;52.302;10.572;2023-12-04T21:09:30;4.07;;;2.53;;
40489;SDS011;26196;52.302;10.572;2023-12-04T21:13:32;7.00;;;3.78;;
40489;SDS011;26196;52.302;10.572;2023-12-04T21:17:32;4.10;;;2.97;;
40489;SDS011;26196;52.302;10.572;2023-12-04T21:21:33;4.97;;;3.08;;
40489;SDS011;26196;52.302;10.572;2023-12-04T21:25:33;4.22;;;3.03;;
40489;SDS011;26196;52.302;10.572;2023-12-04T21:29:34;4.80;;;3.17;;
40489;SDS011;26196;52.302;10.572;2023-12-04T21:33:35;3.83;;;2.80;;
40489;SDS011;26196;52.302;10.572;2023-12-04T21:37:36;5.80;;;2.72;;
40489;SDS011;26196;52.302;10.572;2023-12-04T21:41:37;5.53;;;3.15;;
40489;SDS011;26196;52.302;10.572;2023-12-04T21:45:38;4.47;;;3.00;;
40489;SDS011;26196;52.302;10.572;2023-12-04T21:49:38;3.70;;;2.97;;
40489;SDS011;26196;52.302;10.572;2023-12-04T21:53:38;3.87;;;2.50;;
40489;SDS011;26196;52.302;10.572;2023-12-04T21:57:39;6.40;;;3.58;;
40489;SDS011;26196;52.302;10.572;2023-12-04T22:01:39;3.67;;;2.75;;
40489;SDS011;26196;52.302;10.572;2023-12-04T22:05:39;5.30;;;2.93;;
40489;SDS011;26196;52.302;10.572;2023-12-04T22:09:40;6.10;;;3.23;;
40489;SDS011;26196;52.302;10.572;2023-12-04T22:13:40;3.90;;;3.37;;
40489;SDS011;26196;52.302;10.572;2023-12-04T22:17:40;3.87;;;2.97;;
40489;SDS011;26196;52.302;10.572;2023-12-04T22:21:42;5.90;;;3.30;;
40489;SDS011;26196;52.302;10.572;2023-12-04T22:25:42;5.40;;;3.05;;
40489;SDS011;26196;52.302;10.572;2023-12-04T22:29:43;5.27;;;3.40;;
40489;SDS011;26196;52.302;10.572;2023-12-04T22:33:43;5.53;;;3.03;;
40489;SDS011;26196;52.302;10.572;2023-12-04T22:37:44;5.35;;;2.67;;
40489;SDS011;26196;52.302;10.572;2023-12-04T22:41:44;5.75;;;2.75;;
40489;SDS011;26196;52.302;10.572;2023-12-04T22:45:45;5.78;;;3.35;;
40489;SDS011;26196;52.302;10.572;2023-12-04T22:49:45;4.15;;;2.47;;
40489;SDS011;26196;52.302;10.572;2023-12-04T22:53:46;5.30;;;3.50;;
40489;SDS011;26196;52.302;10.572;2023-12-04T22:57:46;4.93;;;2.70;;
40489;SDS011;26196;52.302;10.572;2023-12-04T23:01:46;4.40;;;2.95;;
40489;SDS011;26196;52.302;10.572;2023-12-04T23:05:47;4.45;;;3.03;;
40489;SDS011;26196;52.302;10.572;2023-12-04T23:09:48;5.60;;;3.40;;
40489;SDS011;26196;52.302;10.572;2023-12-04T23:13:48;5.73;;;4.27;;
40489;SDS011;26196;52.302;10.572;2023-12-04T23:17:49;5.82;;;4.10;;
40489;SDS011;26196;52.302;10.572;2023-12-04T23:21:49;5.90;;;4.05;;
40489;SDS011;26196;52.302;10.572;2023-12-04T23:25:50;6.60;;;3.70;;
40489;SDS011;26196;52.302;10.572;2023-12-04T23:29:51;5.88;;;3.90;;
40489;SDS011;26196;52.302;10.572;2023-12-04T23:33:51;6.80;;;4.17;;
40489;SDS011;26196;52.302;10.572;2023-12-04T23:37:52;6.10;;;4.22;;
40489;SDS011;26196;52.302;10.572;2023-12-04T23:41:52;8.23;;;5.97;;
40489;SDS011;26196;52.302;10.572;2023-12-04T23:45:53;5.70;;;3.13;;
40489;SDS011;26196;52.302;10.572;2023-12-04T23:49:53;6.70;;;4.72;;